Terminal Aerodrome Forecast
Issued by NWS North Platte, NE

Home | Current Version | Previous Version | Text Only | Print | Product List | Glossary On
Versions: 1 2 3 4 5 6 7 8 9 10 11 12 13 14 15 16 17 18
000
FTUS43 KLBF 291003 AAC
TAFLBF
TAF AMD
KLBF 291003Z 2910/3006 VRB02KT 3SM BCFG SCT002
      TEMPO 2910/2912 1/2SM FG BKN002
     FM291300 08003KT 3SM BCFG SCT005
     FM291500 27006KT P6SM SKC=

USA.gov is the U.S. government's official web portal to all federal, state and local government web resources and services.